Time;durP1;ratioP1;P1;durP2;ratioP2;P2;SDS_P1;SDS_P2;PMS_P1;PMS_P2;Temp;Humidity;BMP_temperature;BMP_pressure;BME280_temperature;BME280_humidity;BME280_pressure;Samples;Min_cycle;Max_cycle;Signal;HPM_P1;HPM_P2
2022/11/21 00:01:43;;;;;;;20.67;13.05;;;-0.60;99.90;;;;;;5190941;27;20243;-86
2022/11/21 00:04:09;;;;;;;20.10;13.65;;;0.10;99.90;;;;;;5189139;27;20202;-87
2022/11/21 00:06:36;;;;;;;26.02;14.60;;;-0.50;99.90;;;;;;5187630;27;20229;-86
2022/11/21 00:09:03;;;;;;;21.02;13.73;;;-0.70;99.90;;;;;;5185656;27;20297;-86
2022/11/21 00:11:30;;;;;;;20.13;13.95;;;-0.50;99.90;;;;;;5183889;27;20202;-86
2022/11/21 00:13:57;;;;;;;23.50;13.40;;;-0.70;99.90;;;;;;5183624;27;20639;-86
2022/11/21 00:16:24;;;;;;;28.25;15.02;;;-0.60;99.90;;;;;;5183821;27;20247;-87
2022/11/21 00:18:53;;;;;;;23.33;14.35;;;-0.80;99.90;;;;;;5181409;27;20708;-87
2022/11/21 00:21:20;;;;;;;23.77;14.57;;;-0.50;99.90;;;;;;5190744;27;20215;-85
2022/11/21 00:23:48;;;;;;;21.00;13.43;;;-0.40;99.90;;;;;;5200397;27;20202;-86
2022/11/21 00:26:16;;;;;;;22.50;12.80;;;-0.80;99.90;;;;;;5181892;27;20226;-86
2022/11/21 00:28:43;;;;;;;24.52;14.05;;;0.00;99.90;;;;;;5181207;27;20229;-86
2022/11/21 00:31:18;;;;;;;22.15;14.05;;;-0.40;99.90;;;;;;5188261;27;20198;-86
2022/11/21 00:33:45;;;;;;;23.45;13.60;;;-0.60;99.90;;;;;;5188216;27;20228;-86
2022/11/21 00:36:13;;;;;;;18.95;13.52;;;-0.60;99.90;;;;;;5189587;27;20309;-86
2022/11/21 00:38:40;;;;;;;23.52;13.38;;;-0.80;99.90;;;;;;5189356;27;20579;-87
2022/11/21 00:41:07;;;;;;;22.40;14.55;;;;;;;;;;5188982;27;20316;-86
2022/11/21 00:43:34;;;;;;;23.02;13.90;;;-0.50;99.90;;;;;;5188765;27;20273;-86
2022/11/21 00:46:01;;;;;;;21.30;14.05;;;-1.00;99.90;;;;;;5183683;27;20223;-86
2022/11/21 00:48:28;;;;;;;26.40;13.43;;;-0.70;99.90;;;;;;5182563;27;20638;-86
2022/11/21 00:50:55;;;;;;;24.73;13.80;;;-0.50;99.90;;;;;;5181901;27;20209;-86
2022/11/21 00:53:24;;;;;;;23.00;14.57;;;-0.60;99.90;;;;;;5183824;27;20736;-87
2022/11/21 00:55:50;;;;;;;19.92;13.30;;;-0.60;99.90;;;;;;5183839;27;20226;-86
2022/11/21 00:58:17;;;;;;;21.42;14.60;;;-0.90;99.90;;;;;;5181634;27;20204;-86
2022/11/21 01:00:44;;;;;;;17.13;12.77;;;-0.80;99.90;;;;;;5180692;27;20235;-86
2022/11/21 01:03:11;;;;;;;22.65;13.73;;;-0.60;99.90;;;;;;5179983;27;20635;-86
2022/11/21 01:05:38;;;;;;;24.20;14.50;;;-0.80;99.90;;;;;;5179478;27;20221;-87
2022/11/21 01:08:05;;;;;;;26.42;14.10;;;-0.60;99.90;;;;;;5179251;27;20690;-86
2022/11/21 01:10:34;;;;;;;22.70;13.40;;;-0.40;99.90;;;;;;5178961;27;20244;-87
2022/11/21 01:13:06;;;;;;;26.08;15.20;;;-0.60;99.90;;;;;;5201705;27;20270;-87
2022/11/21 01:15:35;;;;;;;22.17;14.55;;;-0.10;99.90;;;;;;5202130;27;20213;-87
2022/11/21 01:18:04;;;;;;;20.98;13.65;;;-0.60;99.90;;;;;;5190760;27;20190;-87
2022/11/21 01:20:34;;;;;;;20.75;12.73;;;-0.20;99.90;;;;;;5181671;27;20214;-86
2022/11/21 01:23:07;;;;;;;25.08;13.93;;;-0.40;99.90;;;;;;5181269;27;20645;-86
2022/11/21 01:25:39;;;;;;;23.75;13.75;;;-0.60;99.90;;;;;;5182880;27;20311;-87
2022/11/21 01:28:05;;;;;;;21.02;13.90;;;-0.60;99.90;;;;;;5186370;27;20621;-86
2022/11/21 01:30:32;;;;;;;24.05;15.50;;;-0.80;99.90;;;;;;5193802;27;20195;-86
2022/11/21 01:32:59;;;;;;;23.50;13.77;;;-0.80;99.90;;;;;;5189124;27;20301;-86
2022/11/21 01:35:27;;;;;;;20.45;13.48;;;-0.50;99.90;;;;;;5188276;27;20222;-86
2022/11/21 01:37:58;;;;;;;26.95;15.65;;;-0.50;99.90;;;;;;5188666;27;20744;-86
2022/11/21 01:40:29;;;;;;;23.33;15.00;;;-0.60;99.90;;;;;;5185688;27;20297;-86
2022/11/21 01:43:13;;;;;;;23.52;15.18;;;-0.80;99.90;;;;;;5184220;27;20217;-85
2022/11/21 01:45:58;;;;;;;26.00;14.18;;;-0.70;99.90;;;;;;5184551;27;20221;-86
2022/11/21 01:48:30;;;;;;;22.80;14.93;;;-0.90;99.90;;;;;;5179040;27;20182;-86
2022/11/21 01:51:07;;;;;;;23.38;14.55;;;-0.90;99.90;;;;;;5179582;27;20293;-87
2022/11/21 01:53:36;;;;;;;23.77;15.48;;;-0.40;99.90;;;;;;5197508;27;20197;-87
2022/11/21 01:56:10;;;;;;;23.83;14.90;;;-0.70;99.90;;;;;;5201945;27;20238;-86
2022/11/21 01:58:47;;;;;;;27.80;16.02;;;-0.60;99.90;;;;;;5200790;27;20183;-87
2022/11/21 02:01:20;;;;;;;24.90;15.13;;;-0.50;99.90;;;;;;5201345;27;20232;-88
2022/11/21 02:03:48;;;;;;;23.60;14.60;;;-1.00;99.90;;;;;;5200956;27;20173;-86
2022/11/21 02:06:20;;;;;;;23.88;14.85;;;-0.80;99.90;;;;;;5201490;27;20226;-86
2022/11/21 02:08:53;;;;;;;28.95;15.27;;;-0.60;99.90;;;;;;5191251;27;20197;-86
2022/11/21 02:11:32;;;;;;;24.58;14.20;;;-0.70;99.90;;;;;;5179912;27;20190;-86
2022/11/21 02:14:01;;;;;;;27.95;15.68;;;-0.70;99.90;;;;;;5178683;27;20197;-86
2022/11/21 02:16:29;;;;;;;25.00;15.13;;;-0.50;99.90;;;;;;5178176;27;20321;-86
2022/11/21 02:18:56;;;;;;;25.70;14.55;;;-0.50;99.90;;;;;;5184304;27;20230;-86
2022/11/21 02:21:32;;;;;;;29.58;15.48;;;-0.70;99.90;;;;;;5179163;27;20222;-87
2022/11/21 02:24:04;;;;;;;25.45;13.82;;;-0.70;99.90;;;;;;5178919;27;20277;-87
2022/11/21 02:26:33;;;;;;;24.08;14.85;;;-0.70;99.90;;;;;;5178617;27;20317;-87
2022/11/21 02:29:00;;;;;;;29.02;15.77;;;-0.80;99.90;;;;;;5178355;27;20269;-87
2022/11/21 02:31:37;;;;;;;19.48;13.38;;;-0.90;99.90;;;;;;5178076;27;20266;-87
2022/11/21 02:34:04;;;;;;;21.92;14.23;;;-0.80;99.90;;;;;;5178320;27;20281;-87
2022/11/21 02:36:41;;;;;;;18.95;13.10;;;-0.90;99.90;;;;;;5178327;27;20312;-87
2022/11/21 02:39:11;;;;;;;25.58;14.93;;;-0.70;99.90;;;;;;5177863;27;20195;-87
2022/11/21 02:41:43;;;;;;;23.30;13.98;;;-1.10;99.90;;;;;;5177094;27;20224;-87
2022/11/21 02:44:19;;;;;;;25.83;13.95;;;-0.90;99.90;;;;;;5178358;27;20682;-87
2022/11/21 02:46:49;;;;;;;29.90;17.27;;;-0.80;99.90;;;;;;5178117;27;20205;-87
2022/11/21 02:49:19;;;;;;;27.13;15.05;;;-0.50;99.90;;;;;;5178026;27;20206;-86
2022/11/21 02:51:46;;;;;;;23.25;15.50;;;-0.80;99.90;;;;;;5179289;27;20202;-86
2022/11/21 02:54:13;;;;;;;27.35;16.50;;;-0.40;99.90;;;;;;5182013;27;20628;-87
2022/11/21 02:56:41;;;;;;;23.63;14.07;;;-0.90;99.90;;;;;;5181788;27;20212;-87
2022/11/21 02:59:08;;;;;;;26.30;15.35;;;-0.70;99.90;;;;;;5178200;27;20206;-87
2022/11/21 03:01:35;;;;;;;23.05;15.07;;;-0.70;99.90;;;;;;5177212;27;20225;-87
2022/11/21 03:04:01;;;;;;;23.30;14.70;;;-0.40;99.90;;;;;;5176736;27;20209;-86
2022/11/21 03:06:28;;;;;;;21.48;14.50;;;-0.30;99.90;;;;;;5177066;27;20218;-86
2022/11/21 03:08:55;;;;;;;24.98;14.77;;;-0.80;99.90;;;;;;5178483;27;20217;-87
2022/11/21 03:11:22;;;;;;;21.70;13.82;;;-0.70;99.90;;;;;;5181776;27;20261;-87
2022/11/21 03:13:53;;;;;;;22.67;13.35;;;-0.60;99.90;;;;;;5181257;27;20197;-87
2022/11/21 03:16:20;;;;;;;26.48;15.50;;;-0.30;99.90;;;;;;5180477;27;20229;-87
2022/11/21 03:18:47;;;;;;;21.17;12.55;;;-0.80;99.90;;;;;;5183592;27;20225;-87
2022/11/21 03:21:14;;;;;;;25.30;15.32;;;;;;;;;;5181498;27;20217;-86
2022/11/21 03:23:41;;;;;;;25.35;16.52;;;-0.80;99.90;;;;;;5199373;27;20205;-86
2022/11/21 03:26:07;;;;;;;23.10;16.40;;;-0.60;99.90;;;;;;5203529;27;20222;-86
2022/11/21 03:28:34;;;;;;;27.38;16.08;;;-0.40;99.90;;;;;;5198761;27;20258;-86
2022/11/21 03:31:02;;;;;;;31.45;16.58;;;-0.60;99.90;;;;;;5183011;27;20737;-87
2022/11/21 03:33:29;;;;;;;28.55;14.73;;;-0.70;99.90;;;;;;5182119;27;20204;-86
2022/11/21 03:35:56;;;;;;;25.50;15.38;;;-0.40;99.90;;;;;;5181712;27;20327;-86
2022/11/21 03:38:25;;;;;;;29.15;18.05;;;-0.50;99.90;;;;;;5181155;27;20228;-86
2022/11/21 03:40:52;;;;;;;28.10;17.48;;;-0.30;99.90;;;;;;5180889;27;20710;-86
2022/11/21 03:43:19;;;;;;;25.77;16.02;;;-0.20;99.90;;;;;;5190941;27;20218;-86
2022/11/21 03:45:46;;;;;;;29.45;15.30;;;-0.50;99.90;;;;;;5202069;27;20219;-85
2022/11/21 03:48:15;;;;;;;26.98;13.57;;;-0.50;99.90;;;;;;5202231;27;20194;-85
2022/11/21 03:50:42;;;;;;;25.10;16.73;;;-0.40;99.90;;;;;;5192919;27;20229;-86
2022/11/21 03:53:09;;;;;;;27.25;15.30;;;-0.50;99.90;;;;;;5185013;27;20688;-85
2022/11/21 03:55:36;;;;;;;22.58;14.60;;;-1.00;99.90;;;;;;5184508;27;20628;-86
2022/11/21 03:58:03;;;;;;;20.63;14.65;;;-0.90;99.90;;;;;;5189501;27;20282;-86
2022/11/21 04:00:30;;;;;;;27.75;16.77;;;-0.60;99.90;;;;;;5183859;27;20202;-86
2022/11/21 04:02:57;;;;;;;27.42;15.63;;;-0.80;99.90;;;;;;5181469;27;20258;-87
2022/11/21 04:05:25;;;;;;;35.78;16.38;;;-0.60;99.90;;;;;;5188946;27;20723;-86
2022/11/21 04:07:52;;;;;;;28.23;17.20;;;-0.50;99.90;;;;;;5187046;27;20262;-86
2022/11/21 04:10:19;;;;;;;27.70;16.67;;;-0.50;99.90;;;;;;5188869;27;20242;-86
2022/11/21 04:12:46;;;;;;;25.48;15.40;;;-0.70;99.90;;;;;;5186767;27;20206;-86
2022/11/21 04:15:13;;;;;;;24.75;16.50;;;-0.70;99.90;;;;;;5184343;27;20816;-86
2022/11/21 04:17:40;;;;;;;27.92;17.15;;;-0.40;99.90;;;;;;5184412;27;20298;-86
2022/11/21 04:20:07;;;;;;;30.98;15.43;;;-0.50;99.90;;;;;;5182913;27;20202;-86
2022/11/21 04:22:35;;;;;;;30.50;17.35;;;-0.50;99.90;;;;;;5180912;27;20219;-86
2022/11/21 04:25:02;;;;;;;30.27;16.55;;;-0.80;99.90;;;;;;5180369;27;20232;-87
2022/11/21 04:27:29;;;;;;;29.55;17.17;;;-0.50;99.90;;;;;;5179793;27;20298;-86
2022/11/21 04:29:56;;;;;;;28.23;16.73;;;-0.40;99.90;;;;;;5180502;27;20238;-87
2022/11/21 04:32:23;;;;;;;24.90;16.38;;;-0.60;99.90;;;;;;5180078;27;20374;-87
2022/11/21 04:34:50;;;;;;;31.92;16.20;;;-0.20;99.90;;;;;;5180894;27;20309;-87
2022/11/21 04:37:17;;;;;;;29.95;17.17;;;-0.50;99.90;;;;;;5184719;27;20293;-86
2022/11/21 04:39:45;;;;;;;25.27;15.05;;;-0.80;99.90;;;;;;5180931;27;20203;-87
2022/11/21 04:42:12;;;;;;;30.70;14.50;;;-0.80;99.90;;;;;;5179127;27;20574;-87
2022/11/21 04:44:39;;;;;;;29.73;18.08;;;;;;;;;;5180145;27;20430;-87
2022/11/21 04:47:06;;;;;;;30.48;17.88;;;-0.40;99.90;;;;;;5185435;27;20206;-87
2022/11/21 04:49:35;;;;;;;28.30;16.65;;;-0.60;99.90;;;;;;5184844;27;20258;-87
2022/11/21 04:52:03;;;;;;;26.90;14.80;;;-0.50;99.90;;;;;;5182376;27;20250;-87
2022/11/21 04:54:30;;;;;;;22.33;14.25;;;-0.20;99.90;;;;;;5184033;27;20255;-87
2022/11/21 04:56:58;;;;;;;30.45;16.70;;;-0.50;99.90;;;;;;5183398;27;20245;-87
2022/11/21 04:59:25;;;;;;;28.92;15.60;;;-0.40;99.90;;;;;;5183349;27;20198;-87
2022/11/21 05:01:52;;;;;;;22.83;16.00;;;-0.10;99.90;;;;;;5182431;27;20249;-87
2022/11/21 05:04:22;;;;;;;26.35;15.52;;;-0.10;99.90;;;;;;5190344;27;20286;-87
2022/11/21 05:06:49;;;;;;;30.02;17.77;;;-0.30;99.90;;;;;;5198345;27;20219;-87
2022/11/21 05:09:15;;;;;;;30.83;16.75;;;-0.30;99.90;;;;;;5202063;27;20198;-86
2022/11/21 05:14:28;;;;;;;25.17;16.15;;;-0.10;99.90;;;;;;5200237;27;20229;-86
2022/11/21 05:16:55;;;;;;;31.27;16.42;;;-0.10;99.90;;;;;;5199377;27;20236;-87
2022/11/21 05:19:22;;;;;;;29.02;16.33;;;-0.50;99.90;;;;;;5183174;27;20357;-87
2022/11/21 05:21:51;;;;;;;25.25;15.43;;;-0.10;99.90;;;;;;5180097;27;20582;-87
2022/11/21 05:24:18;;;;;;;29.95;18.42;;;-0.40;99.90;;;;;;5179323;27;20438;-88
2022/11/21 05:26:45;;;;;;;31.70;18.48;;;-0.30;99.90;;;;;;5178941;27;20203;-87
2022/11/21 05:29:11;;;;;;;33.72;18.38;;;-0.30;99.90;;;;;;5179159;27;20230;-87
2022/11/21 05:31:40;;;;;;;24.15;16.65;;;0.00;99.90;;;;;;5177975;27;20262;-87
2022/11/21 05:34:07;;;;;;;35.22;16.60;;;-0.20;99.90;;;;;;5179367;27;20290;-87
2022/11/21 05:36:33;;;;;;;34.65;19.55;;;0.00;99.90;;;;;;5184261;27;20246;-87
2022/11/21 05:39:00;;;;;;;25.77;16.00;;;0.20;99.90;;;;;;5202045;27;20262;-87
2022/11/21 05:41:28;;;;;;;27.58;16.13;;;0.10;99.90;;;;;;5201982;27;20254;-88
2022/11/21 05:43:54;;;;;;;30.73;17.17;;;0.00;99.90;;;;;;5201648;27;20167;-87
2022/11/21 05:46:22;;;;;;;28.98;16.40;;;-0.30;99.90;;;;;;5201276;27;20313;-87
2022/11/21 05:48:52;;;;;;;22.90;15.55;;;-0.10;99.90;;;;;;5200669;27;20199;-87
2022/11/21 05:51:20;;;;;;;27.02;15.93;;;1.00;99.90;;;;;;5200131;27;20183;-86
2022/11/21 05:54:02;;;;;;;30.27;18.27;;;0.50;99.90;;;;;;5179002;27;20286;-87
2022/11/21 05:56:29;;;;;;;26.85;17.00;;;0.10;99.90;;;;;;5179994;27;20303;-87
2022/11/21 05:58:57;;;;;;;26.42;15.93;;;0.20;99.90;;;;;;5180118;27;20222;-87
2022/11/21 06:04:07;;;;;;;27.50;16.88;;;0.10;99.90;;;;;;5182060;27;20236;-87
2022/11/21 06:06:33;;;;;;;27.70;16.10;;;-0.20;99.90;;;;;;5187234;27;20305;-87
2022/11/21 06:09:01;;;;;;;31.83;15.70;;;-0.10;99.90;;;;;;5188368;27;20338;-87
2022/11/21 06:11:28;;;;;;;33.92;19.23;;;;;;;;;;5183711;27;20206;-87
2022/11/21 06:13:55;;;;;;;24.85;15.35;;;-0.30;99.90;;;;;;5179221;27;20620;-87
2022/11/21 06:16:22;;;;;;;27.88;18.17;;;0.50;99.90;;;;;;5177605;27;20306;-87
2022/11/21 06:18:51;;;;;;;33.00;18.70;;;-0.20;99.90;;;;;;5177499;27;20292;-87
2022/11/21 06:21:22;;;;;;;32.25;19.00;;;0.10;99.90;;;;;;5185917;27;20206;-87
2022/11/21 06:23:51;;;;;;;29.52;17.92;;;0.30;99.90;;;;;;5198068;27;20203;-87
2022/11/21 06:26:22;;;;;;;32.85;18.70;;;0.00;99.90;;;;;;5198204;27;20561;-87
2022/11/21 06:28:49;;;;;;;33.20;18.38;;;0.00;99.90;;;;;;5190493;27;20204;-87
2022/11/21 06:31:17;;;;;;;29.55;18.45;;;0.40;99.90;;;;;;5178321;27;20252;-88
2022/11/21 06:33:45;;;;;;;29.58;17.40;;;;;;;;;;5178353;27;20255;-87
2022/11/21 06:36:14;;;;;;;30.17;18.88;;;0.40;99.90;;;;;;5178270;27;20222;-87
2022/11/21 06:38:43;;;;;;;28.38;17.50;;;0.10;99.90;;;;;;5178265;27;20200;-86
2022/11/21 06:41:13;;;;;;;35.60;19.88;;;0.30;99.90;;;;;;5177910;27;20297;-87
2022/11/21 06:43:41;;;;;;;30.10;18.88;;;0.30;99.90;;;;;;5179704;27;20218;-87
2022/11/21 06:46:08;;;;;;;31.13;19.75;;;0.30;99.90;;;;;;5182086;27;20230;-87
2022/11/21 06:48:36;;;;;;;35.38;21.33;;;0.40;99.90;;;;;;5182160;27;20231;-87
2022/11/21 06:51:05;;;;;;;32.70;20.50;;;0.30;99.90;;;;;;5181650;27;20229;-87
2022/11/21 06:53:32;;;;;;;31.85;19.17;;;0.20;99.90;;;;;;5181514;27;20222;-87
2022/11/21 06:56:01;;;;;;;30.08;18.25;;;0.20;99.90;;;;;;5181626;27;20219;-87
2022/11/21 06:58:28;;;;;;;33.92;19.90;;;;;;;;;;5181159;27;20752;-88
2022/11/21 07:00:55;;;;;;;39.70;19.77;;;0.40;99.90;;;;;;5181217;27;20203;-87
2022/11/21 07:03:23;;;;;;;30.25;18.73;;;0.30;99.90;;;;;;5181073;27;20289;-87
2022/11/21 07:05:51;;;;;;;31.17;18.65;;;0.60;99.90;;;;;;5182746;27;20309;-87
2022/11/21 07:08:18;;;;;;;36.78;21.95;;;0.50;99.90;;;;;;5182896;27;20261;-87
2022/11/21 07:10:46;;;;;;;30.92;20.35;;;;;;;;;;5183366;27;20206;-86
2022/11/21 07:13:22;;;;;;;39.00;23.90;;;0.30;99.90;;;;;;5183183;27;20202;-86
2022/11/21 07:15:51;;;;;;;34.88;20.33;;;0.60;99.90;;;;;;5184441;27;20229;-87
2022/11/21 07:18:21;;;;;;;31.75;19.33;;;0.60;99.90;;;;;;5186737;27;20199;-87
2022/11/21 07:20:50;;;;;;;30.10;20.23;;;0.50;99.90;;;;;;5185427;27;20187;-87
2022/11/21 07:23:17;;;;;;;35.75;20.13;;;0.50;99.90;;;;;;5184037;27;20241;-87
2022/11/21 07:25:43;;;;;;;30.92;18.92;;;0.70;99.90;;;;;;5183604;27;20215;-87
2022/11/21 07:28:11;;;;;;;36.92;21.40;;;0.60;99.90;;;;;;5183842;27;20213;-88
2022/11/21 07:30:39;;;;;;;34.55;19.80;;;0.50;99.90;;;;;;5182918;27;20203;-87
2022/11/21 07:33:08;;;;;;;31.58;21.63;;;0.30;99.90;;;;;;5186420;27;20199;-87
2022/11/21 07:35:35;;;;;;;35.90;20.27;;;0.40;99.90;;;;;;5182616;27;20716;-87
2022/11/21 07:38:03;;;;;;;38.67;20.80;;;0.70;99.90;;;;;;5182273;27;20210;-87
2022/11/21 07:40:32;;;;;;;32.22;20.92;;;0.60;99.90;;;;;;5184414;27;20621;-87
2022/11/21 07:43:01;;;;;;;34.83;21.02;;;0.30;99.90;;;;;;5184737;27;20696;-86
2022/11/21 07:45:28;;;;;;;40.92;21.50;;;0.50;99.90;;;;;;5186233;27;20215;-86
2022/11/21 07:47:59;;;;;;;38.42;21.00;;;0.30;99.90;;;;;;5185438;27;20230;-86
2022/11/21 07:50:26;;;;;;;37.15;21.77;;;0.20;99.90;;;;;;5184224;27;20258;-87
2022/11/21 07:52:57;;;;;;;30.83;20.63;;;0.50;99.90;;;;;;5183793;27;20259;-86
2022/11/21 07:55:24;;;;;;;47.83;24.23;;;-0.20;99.90;;;;;;5183137;27;20306;-87
2022/11/21 07:58:14;;;;;;;43.50;24.02;;;-0.10;99.90;;;;;;5185642;27;20311;-87
2022/11/21 08:00:47;;;;;;;46.63;26.13;;;;;;;;;;5184746;27;20195;-86
2022/11/21 08:03:17;;;;;;;39.75;22.58;;;;;;;;;;5190575;27;20558;-87
2022/11/21 08:05:49;;;;;;;42.63;24.15;;;;;;;;;;5183700;27;20298;-88
2022/11/21 08:08:44;;;;;;;44.58;24.27;;;;;;;;;;5189662;27;20195;-87
2022/11/21 08:11:12;;;;;;;38.40;22.90;;;;;;;;;;5198492;27;20207;-86
2022/11/21 08:13:40;;;;;;;42.28;23.08;;;;;;;;;;5189327;27;20195;-86
2022/11/21 08:16:17;;;;;;;46.08;24.92;;;;;;;;;;5187471;27;20239;-86
2022/11/21 08:19:42;;;;;;;39.60;22.63;;;0.40;99.90;;;;;;5187015;27;20244;-86
2022/11/21 08:22:41;;;;;;;37.95;22.25;;;0.50;99.90;;;;;;5133047;28;20254;-87
2022/11/21 08:25:58;;;;;;;35.92;22.67;;;0.60;99.90;;;;;;5199949;27;20210;-87
2022/11/21 08:28:38;;;;;;;38.42;23.52;;;;;;;;;;5197255;27;20203;-87
2022/11/21 08:38:18;;;;;;;40.03;21.40;;;;;;;;;;5118141;28;20175;-87
2022/11/21 08:42:01;;;;;;;38.22;20.40;;;;;;;;;;5117376;28;20205;-88
2022/11/21 08:43:46;;;;;;;32.15;19.48;;;;;;;;;;5180143;27;20297;-88
2022/11/21 08:46:31;;;;;;;;;;;;;;;;;;;;;
2022/11/21 08:52:22;;;;;;;38.80;19.17;;;;;;;;;;5159346;27;20336;-86
2022/11/21 08:54:52;;;;;;;31.60;18.83;;;;;;;;;;5162045;27;20320;-88
2022/11/21 08:57:21;;;;;;;37.28;20.13;;;;;;;;;;5161191;27;20202;-88
2022/11/21 08:59:49;;;;;;;36.20;19.70;;;;;;;;;;5159564;27;20248;-87
2022/11/21 09:02:16;;;;;;;28.38;18.30;;;;;;;;;;5159954;27;20287;-88
2022/11/21 09:04:43;;;;;;;32.53;19.08;;;;;;;;;;5159618;27;20254;-88
2022/11/21 09:07:11;;;;;;;30.90;19.73;;;;;;;;;;5158741;27;20317;-88
2022/11/21 09:09:38;;;;;;;41.63;21.77;;;;;;;;;;5159824;27;20678;-87
2022/11/21 09:12:06;;;;;;;31.23;19.60;;;;;;;;;;5160516;27;20677;-88
2022/11/21 09:20:07;;;;;;;40.20;21.70;;;0.20;99.90;;;;;;5181219;27;20219;-89
2022/11/21 09:22:34;;;;;;;33.25;18.90;;;0.40;99.90;;;;;;5180965;27;20198;-85
2022/11/21 09:25:01;;;;;;;39.53;19.73;;;0.30;99.90;;;;;;5180678;27;20226;-86
2022/11/21 09:34:08;;;;;;;42.53;21.63;;;;;;;;;;5081334;28;20224;-86
2022/11/21 10:24:20;;;;;;;28.80;14.38;;;-0.10;99.90;;;;;;5098197;28;20288;-85
2022/11/21 10:26:54;;;;;;;25.38;12.88;;;0.00;99.90;;;;;;5097820;28;20186;-87
2022/11/21 10:29:26;;;;;;;21.13;12.85;;;-0.60;99.90;;;;;;5090258;28;20205;-87
2022/11/21 10:31:56;;;;;;;28.70;16.40;;;-0.20;99.90;;;;;;5086021;28;20253;-87
2022/11/21 10:34:26;;;;;;;21.25;11.63;;;-0.60;99.90;;;;;;5068529;28;20743;-87
2022/11/21 10:36:57;;;;;;;20.00;12.50;;;-0.20;99.90;;;;;;5067417;28;20226;-87
2022/11/21 10:39:33;;;;;;;23.23;12.70;;;-0.40;99.90;;;;;;5069159;28;20183;-87
2022/11/21 10:42:09;;;;;;;21.95;11.63;;;-0.30;99.90;;;;;;5071251;28;20226;-85
2022/11/21 10:47:27;;;;;;;16.42;10.75;;;-0.40;99.90;;;;;;5071126;28;20182;-86
2022/11/21 10:50:02;;;;;;;24.25;10.50;;;-0.10;99.90;;;;;;5076149;28;20267;-84
2022/11/21 10:52:34;;;;;;;19.80;10.98;;;-0.40;99.90;;;;;;5073216;28;20246;-84
2022/11/21 10:55:11;;;;;;;22.85;10.85;;;-0.40;99.90;;;;;;5069911;28;20214;-86
2022/11/21 10:57:42;;;;;;;20.92;11.45;;;-0.50;99.90;;;;;;5068491;28;20289;-86
2022/11/21 11:00:22;;;;;;;22.70;11.50;;;-0.60;99.90;;;;;;5067498;28;20191;-87
2022/11/21 11:03:03;;;;;;;19.80;9.90;;;-0.60;99.90;;;;;;5067601;28;20230;-86
2022/11/21 11:05:32;;;;;;;17.92;9.90;;;-0.70;99.90;;;;;;5068614;28;20263;-86
2022/11/21 11:08:01;;;;;;;17.52;10.70;;;-0.60;99.90;;;;;;5069545;28;20199;-88
2022/11/21 11:10:32;;;;;;;15.50;9.82;;;-0.80;99.90;;;;;;5069267;28;20250;-84
2022/11/21 11:15:58;;;;;;;20.90;12.13;;;-0.50;99.90;;;;;;5067991;28;20277;-87
2022/11/21 11:18:26;;;;;;;19.48;10.45;;;;;;;;;;5068494;28;20195;-86
2022/11/21 11:20:53;;;;;;;22.15;12.45;;;-0.40;99.90;;;;;;5072202;28;20252;-86
2022/11/21 11:23:26;;;;;;;18.02;11.65;;;-0.30;99.90;;;;;;5067205;28;20288;-87
2022/11/21 11:25:55;;;;;;;17.95;11.07;;;-0.40;99.90;;;;;;5077575;28;20202;-86
2022/11/21 11:28:23;;;;;;;16.92;10.55;;;-0.50;99.90;;;;;;5079222;28;20200;-88
2022/11/21 11:30:53;;;;;;;17.73;10.57;;;-0.90;99.90;;;;;;5067137;28;20210;-87
2022/11/21 11:33:32;;;;;;;17.33;9.70;;;-0.70;99.90;;;;;;5067217;28;20233;-88
2022/11/21 11:36:11;;;;;;;18.27;11.27;;;-0.60;99.90;;;;;;5067109;28;20241;-86
2022/11/21 11:38:38;;;;;;;16.02;9.73;;;-0.40;99.90;;;;;;5066882;28;20617;-86
2022/11/21 11:41:19;;;;;;;20.02;10.95;;;-0.40;99.90;;;;;;5065993;28;20238;-87
2022/11/21 11:52:28;;;;;;;11.10;8.10;;;-0.70;99.90;;;;;;5072711;28;20237;-88
2022/11/21 11:55:00;;;;;;;12.02;8.05;;;-0.30;99.90;;;;;;5069751;28;20183;-88
2022/11/21 11:57:31;;;;;;;14.95;9.13;;;-0.20;99.90;;;;;;5066820;28;20191;-87
2022/11/21 12:00:06;;;;;;;12.95;9.10;;;-0.20;99.90;;;;;;5069794;28;20207;-87
2022/11/21 12:02:42;;;;;;;12.75;8.18;;;0.00;99.90;;;;;;5080017;28;20244;-86
2022/11/21 12:05:15;;;;;;;12.55;8.15;;;-0.70;99.90;;;;;;5080451;28;20213;-86
2022/11/21 12:07:47;;;;;;;13.68;8.13;;;0.10;99.90;;;;;;5070535;28;20247;-86
2022/11/21 12:10:20;;;;;;;10.90;8.38;;;0.10;99.90;;;;;;5062159;28;20229;-86
2022/11/21 12:12:55;;;;;;;11.52;8.40;;;-0.10;99.90;;;;;;5067129;28;20234;-88
2022/11/21 12:18:20;;;;;;;24.65;9.98;;;0.10;99.90;;;;;;5068615;28;20186;-86
2022/11/21 12:20:54;;;;;;;14.48;8.85;;;0.10;99.90;;;;;;5070379;28;20215;-87
2022/11/21 12:23:22;;;;;;;18.38;9.48;;;-0.10;99.90;;;;;;5068728;28;20237;-87
2022/11/21 12:26:00;;;;;;;15.35;10.32;;;-0.40;99.90;;;;;;5073550;28;20207;-86
2022/11/21 12:28:38;;;;;;;15.63;9.73;;;-0.10;99.90;;;;;;5074851;28;20195;-84
2022/11/21 12:31:15;;;;;;;15.18;9.98;;;-0.40;99.90;;;;;;5076452;28;20221;-86
2022/11/21 12:33:56;;;;;;;16.85;10.10;;;-0.50;99.90;;;;;;5078077;28;20223;-86
2022/11/21 12:36:35;;;;;;;15.30;10.18;;;-0.80;99.90;;;;;;5078041;28;20202;-86
2022/11/21 12:39:23;;;;;;;13.35;9.90;;;0.40;99.90;;;;;;5075532;28;20214;-87
2022/11/21 12:45:00;;;;;;;16.98;10.93;;;-0.30;99.90;;;;;;5075043;28;20214;-88
2022/11/21 12:56:37;;;;;;;19.77;11.00;;;0.10;99.90;;;;;;5076616;28;20183;-87
2022/11/21 12:59:05;;;;;;;18.15;11.30;;;;;;;;;;5074178;28;20638;-87
2022/11/21 13:01:43;;;;;;;17.65;11.40;;;0.10;99.90;;;;;;5066651;28;20206;-88
2022/11/21 13:04:17;;;;;;;18.02;12.00;;;0.10;99.90;;;;;;5066067;28;20192;-88
2022/11/21 13:06:47;;;;;;;15.07;10.65;;;0.10;99.90;;;;;;5063770;28;20283;-88
2022/11/21 13:09:16;;;;;;;17.13;11.43;;;-0.40;99.90;;;;;;5063931;28;20217;-87
2022/11/21 13:12:00;;;;;;;15.68;10.27;;;-0.10;99.90;;;;;;5065027;28;20249;-88
2022/11/21 13:14:44;;;;;;;18.15;10.75;;;-0.10;99.90;;;;;;5064018;28;20232;-88
2022/11/21 13:17:26;;;;;;;18.67;10.77;;;-0.40;99.90;;;;;;5065153;28;20645;-87
2022/11/21 13:19:57;;;;;;;20.00;11.50;;;-0.20;99.90;;;;;;5064389;28;20286;-88
2022/11/21 13:23:05;;;;;;;22.00;12.65;;;-0.40;99.90;;;;;;5063190;28;20274;-87
2022/11/21 13:25:46;;;;;;;19.05;10.85;;;-0.50;99.90;;;;;;5059558;28;20245;-88
2022/11/21 13:28:33;;;;;;;18.95;12.07;;;-0.50;99.90;;;;;;5073642;28;20205;-87
2022/11/21 13:31:02;;;;;;;22.40;13.57;;;-0.70;99.90;;;;;;5070626;28;20238;-86
2022/11/21 13:33:52;;;;;;;22.60;14.18;;;-0.40;99.90;;;;;;5066754;28;20333;-87
2022/11/21 13:36:43;;;;;;;16.83;11.57;;;-0.40;99.90;;;;;;5071452;28;20215;-87
2022/11/21 13:39:37;;;;;;;20.02;13.50;;;-0.60;99.90;;;;;;5053179;28;20282;-87
2022/11/21 13:44:56;;;;;;;23.25;13.10;;;-0.50;99.90;;;;;;5066722;28;20476;-87
2022/11/21 13:47:56;;;;;;;20.40;12.70;;;-0.40;99.90;;;;;;5064119;28;20211;-88
2022/11/21 13:50:49;;;;;;;24.05;12.43;;;-0.30;99.90;;;;;;5064171;28;20258;-87
2022/11/21 13:53:40;;;;;;;23.20;13.98;;;0.00;99.90;;;;;;5062999;28;20250;-87
2022/11/21 13:56:17;;;;;;;18.27;12.00;;;-0.10;99.90;;;;;;5064944;28;20196;-87
2022/11/21 13:58:53;;;;;;;17.05;11.20;;;0.00;99.90;;;;;;5065104;28;20210;-87
2022/11/21 14:02:01;;;;;;;25.58;14.98;;;0.10;99.90;;;;;;5066698;28;20190;-87
2022/11/21 14:05:06;;;;;;;28.60;13.82;;;0.10;99.90;;;;;;5068169;28;20187;-87
2022/11/21 14:07:36;;;;;;;21.20;15.55;;;-0.20;99.90;;;;;;5065103;28;20290;-87
2022/11/21 14:10:06;;;;;;;25.67;15.13;;;-0.10;99.90;;;;;;5062912;28;20198;-87
2022/11/21 14:12:36;;;;;;;21.08;13.48;;;-0.30;99.90;;;;;;5062739;28;20233;-88
2022/11/21 14:15:19;;;;;;;21.33;14.27;;;-0.20;99.90;;;;;;5062303;28;20264;-87
2022/11/21 14:17:48;;;;;;;24.52;13.80;;;-0.10;99.90;;;;;;5062740;28;20195;-87
2022/11/21 14:20:21;;;;;;;25.38;16.65;;;-0.20;99.90;;;;;;5064963;28;20214;-87
2022/11/21 14:22:59;;;;;;;24.73;15.30;;;0.10;99.90;;;;;;5062629;28;20278;-88
2022/11/21 14:25:42;;;;;;;29.95;14.32;;;-0.20;99.90;;;;;;5062480;28;20256;-88
2022/11/21 14:28:14;;;;;;;28.52;14.68;;;0.00;99.90;;;;;;5062777;28;20258;-88
2022/11/21 14:30:42;;;;;;;22.95;14.35;;;-0.10;99.90;;;;;;5062411;28;20290;-88
2022/11/21 14:33:23;;;;;;;20.48;13.52;;;-0.30;99.90;;;;;;5062427;28;20591;-88
2022/11/21 14:35:53;;;;;;;18.77;13.52;;;-0.50;99.90;;;;;;5062387;28;20253;-86
2022/11/21 14:38:22;;;;;;;21.10;13.80;;;-0.60;99.90;;;;;;5062055;28;20161;-88
2022/11/21 14:40:49;;;;;;;22.92;15.00;;;-0.30;99.90;;;;;;5065564;28;20441;-88
2022/11/21 14:43:29;;;;;;;20.40;13.63;;;-0.70;99.90;;;;;;5066378;28;20652;-87
2022/11/21 14:45:57;;;;;;;29.33;14.90;;;;;;;;;;5066826;28;20225;-87
2022/11/21 14:48:27;;;;;;;23.55;15.27;;;-0.40;99.90;;;;;;5064510;28;20203;-86
2022/11/21 14:50:57;;;;;;;26.02;14.18;;;-0.20;99.90;;;;;;5063463;28;20199;-88